Beersheba, Israel
Current Conditions -  °F | °C
As of 5:20 PM on Friday 19 Dec 2014 (Local Time) from LLBG Reporting Station
Scattered Clouds Scattered Clouds  
Wind Chill: 64°   Ceiling: Unl
Heat Index: 64°   Visibility: 4mi
Dew Point: 57°   Wind: 3mph
Humidity: 77%   Direction: NA
Pressure: 30.06"   Gusts: NA
Location:  31.25°N, 34.8°E
Report Text: LLBG 191420Z VRB03KT 6000 SCT030 18/14 Q1018 NOSIG RMK BKN060
Loading
Personal Weather Stations






























Interactive Weather Map New forecast layout! Learn more

10-Day Weather Forecast

Advertisements
Track Severe Weather on mobile